Time;durP1;ratioP1;P1;durP2;ratioP2;P2;SDS_P1;SDS_P2;PMS_P1;PMS_P2;Temp;Humidity;BMP_temperature;BMP_pressure;BME280_temperature;BME280_humidity;BME280_pressure;Samples;Min_cycle;Max_cycle;Signal;HPM_P1;HPM_P2
2022/05/06 00:01:27;;;;;;;12.75;8.95;;;;;;;;;;5013999;28;20017;-69
2022/05/06 00:03:53;;;;;;;14.25;8.43;;;;;;;;;;5011753;28;20022;-69
2022/05/06 00:06:20;;;;;;;21.05;9.73;;;;;;;;;;5010878;28;20053;-69
2022/05/06 00:12:03;;;;;;;13.52;9.20;;;;;;;;;;4970401;28;20087;-69
2022/05/06 00:42:46;;;;;;;19.10;11.20;;;;;;;;;;4956005;28;20042;-69
2022/05/06 00:48:25;;;;;;;16.77;10.65;;;;;;;;;;4941178;29;20046;-69
2022/05/06 01:11:38;;;;;;;20.50;12.55;;;;;;;;;;5005165;28;20065;-66
2022/05/06 01:14:32;;;;;;;19.08;11.23;;;;;;;;;;5013748;23;20111;-65
2022/05/06 01:16:58;;;;;;;20.27;12.27;;;;;;;;;;5008656;28;20022;-65
2022/05/06 01:19:24;;;;;;;21.58;12.13;;;;;;;;;;5011637;28;20041;-65
2022/05/06 01:21:53;;;;;;;20.88;12.05;;;;;;;;;;4993928;28;20034;-66
2022/05/06 01:24:19;;;;;;;18.10;12.15;;;;;;;;;;5011465;28;20230;-65
2022/05/06 01:26:57;;;;;;;23.92;12.80;;;;;;;;;;5011116;28;20030;-66
2022/05/06 01:29:24;;;;;;;24.42;12.57;;;;;;;;;;5001577;28;20397;-65
2022/05/06 01:31:51;;;;;;;21.70;13.43;;;;;;;;;;5009974;28;20026;-65
2022/05/06 01:34:17;;;;;;;24.65;14.18;;;;;;;;;;5011026;28;20535;-66
2022/05/06 01:36:46;;;;;;;20.67;13.10;;;;;;;;;;5010681;28;20026;-66
2022/05/06 01:39:13;;;;;;;24.30;12.55;;;;;;;;;;5011279;28;20490;-66
2022/05/06 01:41:40;;;;;;;20.75;13.05;;;;;;;;;;5012783;28;20072;-67
2022/05/06 01:44:08;;;;;;;21.40;13.68;;;;;;;;;;5005597;28;20472;-65
2022/05/06 01:46:35;;;;;;;23.27;14.25;;;;;;;;;;4994079;28;20115;-67
2022/05/06 01:49:02;;;;;;;26.20;14.55;;;;;;;;;;5011403;28;20030;-66
2022/05/06 01:51:29;;;;;;;20.35;13.07;;;;;;;;;;5003494;28;20400;-65
2022/05/06 01:53:55;;;;;;;23.23;13.57;;;;;;;;;;5007594;28;20026;-66
2022/05/06 01:56:21;;;;;;;21.30;12.88;;;;;;;;;;5006651;28;20032;-65
2022/05/06 01:58:48;;;;;;;20.60;12.70;;;;;;;;;;5001435;28;20038;-66
2022/05/06 02:01:14;;;;;;;22.90;14.23;;;;;;;;;;4993783;28;20054;-66
2022/05/06 02:06:25;;;;;;;23.60;14.07;;;;;;;;;;5011101;28;20099;-66
2022/05/06 02:08:51;;;;;;;22.02;13.40;;;;;;;;;;5008506;28;20029;-66
2022/05/06 02:11:18;;;;;;;24.23;14.40;;;;;;;;;;5011114;28;20135;-66
2022/05/06 02:13:44;;;;;;;24.55;14.38;;;;;;;;;;5012046;28;20498;-66
2022/05/06 02:16:10;;;;;;;22.42;13.88;;;;;;;;;;5003754;28;20430;-66
2022/05/06 02:18:36;;;;;;;22.08;13.00;;;;;;;;;;5003464;28;20406;-66
2022/05/06 02:21:03;;;;;;;23.85;14.05;;;;;;;;;;4992591;28;20398;-65
2022/05/06 02:23:29;;;;;;;23.95;13.38;;;;;;;;;;5010531;28;20034;-65
2022/05/06 02:25:55;;;;;;;26.20;13.40;;;;;;;;;;4992593;28;20053;-65
2022/05/06 02:28:21;;;;;;;24.73;14.80;;;;;;;;;;5008717;28;20069;-67
2022/05/06 02:33:31;;;;;;;30.65;13.68;;;;;;;;;;5010660;28;20107;-66
2022/05/06 02:35:59;;;;;;;24.17;15.23;;;;;;;;;;5010708;28;20032;-66
2022/05/06 02:38:25;;;;;;;30.35;14.70;;;;;;;;;;5009609;28;20555;-66
2022/05/06 02:40:52;;;;;;;24.65;14.60;;;;;;;;;;5009611;28;20117;-66
2022/05/06 02:43:18;;;;;;;26.83;14.82;;;;;;;;;;5010469;28;20017;-65
2022/05/06 02:45:44;;;;;;;25.83;15.50;;;;;;;;;;4999676;28;20079;-66
2022/05/06 02:48:10;;;;;;;28.80;14.50;;;;;;;;;;5009652;28;20022;-66
2022/05/06 02:50:37;;;;;;;21.98;13.05;;;;;;;;;;5010030;28;20041;-66
2022/05/06 02:53:03;;;;;;;23.05;14.07;;;;;;;;;;4987570;28;20032;-66
2022/05/06 02:55:30;;;;;;;24.25;14.07;;;;;;;;;;5010062;28;20029;-66
2022/05/06 03:00:59;;;;;;;21.95;13.60;;;;;;;;;;5010502;28;20041;-66
2022/05/06 03:03:25;;;;;;;21.38;13.65;;;;;;;;;;5011935;28;20029;-66
2022/05/06 03:05:51;;;;;;;24.27;15.02;;;;;;;;;;4998802;28;20031;-66
2022/05/06 03:08:17;;;;;;;20.38;12.77;;;;;;;;;;5001694;28;20083;-66
2022/05/06 03:10:43;;;;;;;25.73;14.30;;;;;;;;;;4993791;28;20034;-65
2022/05/06 03:13:09;;;;;;;26.50;14.95;;;;;;;;;;5011088;28;20068;-66
2022/05/06 03:15:36;;;;;;;30.70;15.50;;;;;;;;;;5007716;28;20054;-66
2022/05/06 03:18:03;;;;;;;24.35;14.40;;;;;;;;;;5008672;28;20022;-66
2022/05/06 03:20:29;;;;;;;25.55;14.23;;;;;;;;;;5010173;28;20060;-66
2022/05/06 03:22:55;;;;;;;24.60;13.95;;;;;;;;;;5009934;28;20018;-65
2022/05/06 03:25:21;;;;;;;23.98;15.32;;;;;;;;;;4992360;28;20408;-65
2022/05/06 03:27:59;;;;;;;23.48;14.55;;;;;;;;;;5008786;28;20018;-66
2022/05/06 03:30:26;;;;;;;25.65;13.77;;;;;;;;;;5008410;28;20065;-65
2022/05/06 03:32:55;;;;;;;25.98;16.02;;;;;;;;;;5009331;28;20037;-66
2022/05/06 03:35:21;;;;;;;25.75;15.25;;;;;;;;;;5009479;28;20034;-66
2022/05/06 03:37:47;;;;;;;25.20;14.20;;;;;;;;;;5008585;28;20435;-66
2022/05/06 03:40:14;;;;;;;29.00;14.43;;;;;;;;;;5009388;28;20459;-66
2022/05/06 03:42:40;;;;;;;23.15;14.85;;;;;;;;;;5009176;28;20395;-66
2022/05/06 03:45:07;;;;;;;25.35;14.70;;;;;;;;;;5008571;28;20037;-66
2022/05/06 03:47:34;;;;;;;24.27;15.13;;;;;;;;;;5008748;28;20030;-66
2022/05/06 03:52:48;;;;;;;26.02;14.88;;;;;;;;;;5009465;28;20065;-65
2022/05/06 03:55:14;;;;;;;25.85;15.43;;;;;;;;;;5009381;28;20022;-65
2022/05/06 03:57:42;;;;;;;23.85;15.13;;;;;;;;;;5008502;28;20096;-66
2022/05/06 04:00:09;;;;;;;31.35;14.65;;;;;;;;;;4991780;28;20026;-67
2022/05/06 04:02:36;;;;;;;31.77;15.35;;;;;;;;;;5009195;28;20068;-66
2022/05/06 04:05:03;;;;;;;25.48;14.32;;;;;;;;;;5009312;28;20032;-66
2022/05/06 04:07:29;;;;;;;22.92;14.85;;;;;;;;;;5007436;28;20360;-65
2022/05/06 04:09:55;;;;;;;29.23;15.15;;;;;;;;;;5009139;28;20032;-66
2022/05/06 04:12:21;;;;;;;20.17;13.65;;;;;;;;;;5009663;28;20033;-66
2022/05/06 04:14:47;;;;;;;30.23;13.95;;;;;;;;;;5008358;28;20480;-66
2022/05/06 04:17:14;;;;;;;20.23;13.43;;;;;;;;;;4991047;28;20029;-66
2022/05/06 04:23:29;;;;;;;27.48;14.80;;;;;;;;;;5012774;28;20499;-66
2022/05/06 04:25:17;;;;;;;19.63;13.15;;;;;;;;;;5007681;28;20048;-66
2022/05/06 04:27:43;;;;;;;21.75;14.13;;;;;;;;;;5012215;28;20533;-65
2022/05/06 04:30:10;;;;;;;21.88;14.48;;;;;;;;;;5011641;28;20038;-66
2022/05/06 04:32:36;;;;;;;21.92;13.75;;;;;;;;;;5012525;28;20673;-65
2022/05/06 04:35:05;;;;;;;21.33;14.00;;;;;;;;;;5012792;28;20053;-66
2022/05/06 04:37:31;;;;;;;21.30;13.10;;;;;;;;;;5012315;28;20041;-67
2022/05/06 04:39:57;;;;;;;22.45;13.55;;;;;;;;;;5012980;28;20022;-66
2022/05/06 04:42:23;;;;;;;20.25;13.32;;;;;;;;;;5012999;28;20025;-66
2022/05/06 04:44:49;;;;;;;20.05;13.45;;;;;;;;;;5011704;28;20556;-66
2022/05/06 04:47:15;;;;;;;23.60;13.70;;;;;;;;;;5011565;28;20049;-66
2022/05/06 04:49:41;;;;;;;24.60;14.40;;;;;;;;;;5012353;28;20391;-66
2022/05/06 04:52:08;;;;;;;23.42;14.05;;;;;;;;;;5012947;28;20033;-66
2022/05/06 04:54:34;;;;;;;25.65;13.75;;;;;;;;;;4994813;28;20041;-66
2022/05/06 04:57:00;;;;;;;23.08;13.73;;;;;;;;;;5018537;28;20044;-69
2022/05/06 04:59:26;;;;;;;22.00;13.63;;;;;;;;;;5011678;28;20034;-66
2022/05/06 05:01:52;;;;;;;19.48;13.40;;;;;;;;;;5019491;28;20628;-66
2022/05/06 05:04:18;;;;;;;28.75;14.18;;;;;;;;;;5012172;28;20099;-66
2022/05/06 05:06:45;;;;;;;21.52;12.65;;;;;;;;;;5011385;28;20489;-68
2022/05/06 05:09:11;;;;;;;20.88;12.15;;;;;;;;;;5005508;28;20029;-66
2022/05/06 05:11:37;;;;;;;22.33;14.27;;;;;;;;;;5012495;28;20048;-65
2022/05/06 05:14:06;;;;;;;23.58;13.35;;;;;;;;;;5013638;28;20480;-66
2022/05/06 05:16:33;;;;;;;23.55;12.95;;;;;;;;;;5011515;28;20025;-68
2022/05/06 05:18:59;;;;;;;25.55;14.52;;;;;;;;;;5003662;28;20366;-65
2022/05/06 05:21:25;;;;;;;21.88;13.57;;;;;;;;;;5012118;28;20105;-66
2022/05/06 05:23:52;;;;;;;26.83;14.10;;;;;;;;;;5014216;28;20091;-65
2022/05/06 05:26:17;;;;;;;20.52;13.23;;;;;;;;;;5017455;28;20026;-66
2022/05/06 05:28:43;;;;;;;19.83;12.65;;;;;;;;;;5010906;28;20464;-65
2022/05/06 05:31:10;;;;;;;20.70;12.48;;;;;;;;;;5005433;28;20042;-65
2022/05/06 05:33:36;;;;;;;26.40;13.43;;;;;;;;;;5008177;28;20061;-66
2022/05/06 05:36:02;;;;;;;25.00;10.90;;;;;;;;;;5011620;28;20032;-66
2022/05/06 05:38:28;;;;;;;25.13;12.02;;;;;;;;;;5010541;28;20021;-66
2022/05/06 05:40:54;;;;;;;19.90;12.15;;;;;;;;;;5010734;28;20475;-66
2022/05/06 05:49:06;;;;;;;21.60;12.25;;;;;;;;;;4964008;28;20043;-67
2022/05/06 05:51:33;;;;;;;22.77;12.05;;;;;;;;;;4981535;28;20044;-67
2022/05/06 05:53:59;;;;;;;26.45;12.38;;;;;;;;;;5011305;28;20101;-65
2022/05/06 05:56:25;;;;;;;19.15;11.38;;;;;;;;;;5011109;28;20018;-66
2022/05/06 05:58:51;;;;;;;18.25;11.50;;;;;;;;;;5009959;28;20404;-66
2022/05/06 06:01:18;;;;;;;20.50;11.18;;;;;;;;;;4992172;28;20476;-66
2022/05/06 06:03:44;;;;;;;21.83;11.82;;;;;;;;;;5010799;28;20045;-66
2022/05/06 06:06:10;;;;;;;19.55;10.85;;;;;;;;;;5005692;28;20088;-66
2022/05/06 06:08:36;;;;;;;19.90;10.82;;;;;;;;;;5005688;28;20021;-66
2022/05/06 06:11:06;;;;;;;22.48;11.43;;;;;;;;;;5010572;28;20040;-65
2022/05/06 06:13:32;;;;;;;16.30;9.70;;;;;;;;;;5010590;28;20026;-66
2022/05/06 06:15:58;;;;;;;18.98;11.07;;;;;;;;;;5010403;28;20025;-65
2022/05/06 06:18:26;;;;;;;14.13;9.75;;;;;;;;;;5009958;28;20025;-66
2022/05/06 06:20:56;;;;;;;18.60;9.50;;;;;;;;;;5009135;28;20040;-66
2022/05/06 06:23:22;;;;;;;21.00;10.30;;;;;;;;;;5010792;28;20037;-66
2022/05/06 06:25:48;;;;;;;18.90;10.35;;;;;;;;;;5010241;28;20096;-66
2022/05/06 06:28:15;;;;;;;15.23;9.65;;;;;;;;;;4991649;28;20077;-66
2022/05/06 06:30:41;;;;;;;17.25;9.55;;;;;;;;;;5009972;28;20518;-66
2022/05/06 06:33:10;;;;;;;16.85;9.73;;;;;;;;;;5010764;28;20475;-65
2022/05/06 06:35:36;;;;;;;19.88;11.45;;;;;;;;;;5009707;28;20108;-66
2022/05/06 06:38:03;;;;;;;21.35;9.73;;;;;;;;;;5009776;28;20506;-66
2022/05/06 06:40:28;;;;;;;17.98;9.68;;;;;;;;;;5010305;28;20447;-66
2022/05/06 06:43:00;;;;;;;14.45;9.60;;;;;;;;;;4992635;28;20105;-65
2022/05/06 06:45:26;;;;;;;12.85;8.50;;;;;;;;;;5010384;28;20041;-66
2022/05/06 06:47:53;;;;;;;14.40;9.48;;;;;;;;;;4991419;28;20354;-66
2022/05/06 06:50:19;;;;;;;19.30;9.18;;;;;;;;;;5010416;28;20076;-66
2022/05/06 06:52:45;;;;;;;17.15;8.90;;;;;;;;;;5010621;28;20641;-65
2022/05/06 06:55:11;;;;;;;15.55;9.30;;;;;;;;;;5010724;28;20030;-65
2022/05/06 06:57:37;;;;;;;16.90;9.25;;;;;;;;;;5010116;28;20025;-65
2022/05/06 07:00:04;;;;;;;15.95;8.77;;;;;;;;;;5002503;28;20017;-65
2022/05/06 07:02:30;;;;;;;18.48;8.73;;;;;;;;;;5009485;28;20022;-66
2022/05/06 07:04:57;;;;;;;21.85;8.52;;;;;;;;;;5010047;28;20022;-66
2022/05/06 07:12:53;;;;;;;20.08;9.45;;;;;;;;;;5009202;28;20161;-65
2022/05/06 07:15:19;;;;;;;13.30;8.30;;;;;;;;;;5009739;28;20511;-66
2022/05/06 07:17:45;;;;;;;12.50;7.85;;;;;;;;;;5008733;28;20030;-67
2022/05/06 07:20:11;;;;;;;13.50;8.63;;;;;;;;;;5008134;28;20030;-65
2022/05/06 07:22:37;;;;;;;14.55;8.02;;;;;;;;;;5009964;28;20026;-66
2022/05/06 07:25:04;;;;;;;14.52;8.05;;;;;;;;;;5009803;28;20034;-66
2022/05/06 07:27:30;;;;;;;18.58;7.88;;;;;;;;;;4991856;28;20026;-66
2022/05/06 07:29:56;;;;;;;19.35;8.75;;;;;;;;;;4991627;28;20049;-66
2022/05/06 07:32:22;;;;;;;12.43;7.85;;;;;;;;;;5019310;23;20026;-68
2022/05/06 07:34:48;;;;;;;17.48;8.95;;;;;;;;;;5015349;28;20038;-67
2022/05/06 07:37:14;;;;;;;19.73;9.00;;;;;;;;;;5022746;28;20399;-68
2022/05/06 07:39:40;;;;;;;20.65;8.30;;;;;;;;;;5029244;28;20026;-69
2022/05/06 07:42:06;;;;;;;15.95;8.20;;;;;;;;;;5016250;28;20018;-68
2022/05/06 07:44:32;;;;;;;16.10;8.73;;;;;;;;;;5017724;28;20057;-68
2022/05/06 07:46:58;;;;;;;17.02;8.35;;;;;;;;;;5018089;28;20185;-68
2022/05/06 07:49:25;;;;;;;18.65;8.73;;;;;;;;;;5028917;28;20017;-68
2022/05/06 07:51:51;;;;;;;15.73;9.57;;;;;;;;;;5028542;28;20048;-68
2022/05/06 07:54:17;;;;;;;12.95;7.90;;;;;;;;;;5032712;28;20021;-69
2022/05/06 07:56:43;;;;;;;17.83;8.48;;;;;;;;;;5030701;28;20068;-68
2022/05/06 07:59:09;;;;;;;15.23;8.48;;;;;;;;;;5026358;28;20026;-68
2022/05/06 08:04:38;;;;;;;20.52;9.25;;;;;;;;;;5032747;28;20581;-67
2022/05/06 08:07:05;;;;;;;14.00;8.40;;;;;;;;;;5015211;28;20025;-68
2022/05/06 08:09:31;;;;;;;12.57;7.50;;;;;;;;;;5027832;28;20564;-68
2022/05/06 08:11:57;;;;;;;18.30;8.93;;;;;;;;;;5032556;28;20021;-68
2022/05/06 08:14:23;;;;;;;15.65;8.35;;;;;;;;;;5033090;28;20026;-67
2022/05/06 08:16:50;;;;;;;17.92;9.18;;;;;;;;;;5030724;28;20159;-72
2022/05/06 08:19:16;;;;;;;16.25;8.00;;;;;;;;;;5033284;28;20025;-68
2022/05/06 08:21:43;;;;;;;19.35;8.73;;;;;;;;;;5030627;28;20140;-68
2022/05/06 08:24:09;;;;;;;14.60;8.40;;;;;;;;;;5032061;28;20054;-68
2022/05/06 08:26:35;;;;;;;14.05;8.82;;;;;;;;;;5032388;28;20052;-68
2022/05/06 08:29:01;;;;;;;15.52;8.38;;;;;;;;;;5014358;28;20108;-69
2022/05/06 08:31:28;;;;;;;12.05;7.80;;;;;;;;;;5032709;28;20060;-68
2022/05/06 08:33:57;;;;;;;15.60;7.72;;;;;;;;;;5031006;28;20041;-68
2022/05/06 08:36:24;;;;;;;13.13;9.05;;;;;;;;;;5032571;28;20475;-68
2022/05/06 08:38:50;;;;;;;15.07;8.85;;;;;;;;;;5029545;28;20025;-69
2022/05/06 08:41:16;;;;;;;19.80;8.90;;;;;;;;;;5027198;28;20044;-69
2022/05/06 08:43:42;;;;;;;16.80;7.82;;;;;;;;;;5014971;28;20025;-68
2022/05/06 08:51:39;;;;;;;17.25;8.57;;;;;;;;;;5032152;28;20052;-68
2022/05/06 08:54:05;;;;;;;13.70;7.95;;;;;;;;;;5032065;28;20032;-68
2022/05/06 08:56:31;;;;;;;16.65;8.18;;;;;;;;;;5030786;28;20732;-68
2022/05/06 08:59:00;;;;;;;15.10;7.80;;;;;;;;;;5010323;28;20510;-68
2022/05/06 09:01:26;;;;;;;13.13;7.47;;;;;;;;;;5021070;28;20387;-68
2022/05/06 09:03:52;;;;;;;21.27;8.05;;;;;;;;;;5028819;28;20539;-68
2022/05/06 09:06:22;;;;;;;14.80;7.63;;;;;;;;;;5031631;28;20113;-69
2022/05/06 09:08:49;;;;;;;15.73;7.82;;;;;;;;;;5029744;28;20092;-68
2022/05/06 09:11:17;;;;;;;11.02;7.38;;;;;;;;;;5026085;28;20147;-68
2022/05/06 09:13:58;;;;;;;11.70;7.93;;;;;;;;;;5027791;28;20021;-69
2022/05/06 09:16:40;;;;;;;17.17;7.93;;;;;;;;;;5027222;28;20036;-67
2022/05/06 09:19:13;;;;;;;11.60;7.13;;;;;;;;;;5022122;28;20033;-68
2022/05/06 09:21:59;;;;;;;11.65;7.20;;;;;;;;;;5032165;28;20053;-68
2022/05/06 09:24:27;;;;;;;14.23;7.68;;;;;;;;;;5031445;28;20033;-68
2022/05/06 09:27:00;;;;;;;12.45;7.45;;;;;;;;;;5030661;28;20070;-69
2022/05/06 09:29:35;;;;;;;17.42;8.60;;;;;;;;;;5032142;28;20533;-68
2022/05/06 09:32:20;;;;;;;12.05;7.63;;;;;;;;;;5030013;28;20025;-68
2022/05/06 09:34:47;;;;;;;15.57;7.57;;;;;;;;;;5022976;28;20254;-67
2022/05/06 09:37:29;;;;;;;13.70;7.65;;;;;;;;;;5031062;28;20041;-67
2022/05/06 09:40:05;;;;;;;15.38;7.32;;;;;;;;;;5031103;28;20379;-68
2022/05/06 09:42:32;;;;;;;18.70;8.15;;;;;;;;;;5031132;28;20490;-68
2022/05/06 09:44:59;;;;;;;16.35;7.70;;;;;;;;;;5031332;28;20070;-68
2022/05/06 09:47:25;;;;;;;13.40;7.78;;;;;;;;;;5029425;28;20056;-68
2022/05/06 09:49:52;;;;;;;11.45;7.45;;;;;;;;;;5030830;28;20025;-68
2022/05/06 09:52:19;;;;;;;16.60;7.15;;;;;;;;;;5031363;28;20021;-68
2022/05/06 09:54:46;;;;;;;14.30;8.13;;;;;;;;;;5030785;28;20033;-69
2022/05/06 09:57:18;;;;;;;10.20;6.85;;;;;;;;;;5030752;28;20017;-68
2022/05/06 09:59:45;;;;;;;15.98;7.75;;;;;;;;;;5030886;28;20180;-69
2022/05/06 10:02:11;;;;;;;16.58;8.60;;;;;;;;;;5030669;28;20040;-68
2022/05/06 10:04:38;;;;;;;16.60;8.50;;;;;;;;;;5029791;28;20025;-68
2022/05/06 10:07:11;;;;;;;17.63;8.82;;;;;;;;;;5028923;28;20021;-67
2022/05/06 10:09:55;;;;;;;13.65;8.18;;;;;;;;;;5020903;28;20037;-67
2022/05/06 10:12:22;;;;;;;21.77;8.05;;;;;;;;;;5022349;28;20041;-68
2022/05/06 10:14:49;;;;;;;15.77;8.25;;;;;;;;;;5012401;28;20025;-68
2022/05/06 10:17:35;;;;;;;16.23;8.05;;;;;;;;;;5023493;28;20476;-68
2022/05/06 10:20:01;;;;;;;15.27;8.60;;;;;;;;;;5029529;28;20026;-68
2022/05/06 10:22:48;;;;;;;16.27;8.30;;;;;;;;;;5030595;28;20084;-69
2022/05/06 10:25:33;;;;;;;15.35;7.35;;;;;;;;;;5015944;28;20104;-68
2022/05/06 10:34:11;;;;;;;14.73;8.25;;;;;;;;;;5022671;28;20504;-68
2022/05/06 10:36:54;;;;;;;14.30;7.45;;;;;;;;;;5029755;28;20026;-69
2022/05/06 10:39:20;;;;;;;12.05;7.10;;;;;;;;;;5012552;28;20148;-69
2022/05/06 10:42:06;;;;;;;16.23;7.88;;;;;;;;;;5028537;28;20026;-68
2022/05/06 10:44:42;;;;;;;14.65;7.35;;;;;;;;;;5029742;28;20447;-69
2022/05/06 10:47:14;;;;;;;15.07;7.55;;;;;;;;;;5021952;28;20475;-68
2022/05/06 10:49:40;;;;;;;14.55;7.55;;;;;;;;;;5028711;28;20418;-68
2022/05/06 10:52:28;;;;;;;10.43;6.68;;;;;;;;;;5017743;28;20026;-68
2022/05/06 10:55:00;;;;;;;14.32;7.50;;;;;;;;;;5029160;28;20025;-68
2022/05/06 10:57:31;;;;;;;13.57;7.43;;;;;;;;;;5028561;28;20174;-68
2022/05/06 10:59:56;;;;;;;;;;;;;;;;;;5029784;28;20021;-68
2022/05/06 11:02:27;;;;;;;17.10;7.25;;;;;;;;;;5029705;28;20389;-68
2022/05/06 11:04:57;;;;;;;17.05;7.93;;;;;;;;;;5028633;28;20167;-68
2022/05/06 11:07:24;;;;;;;15.32;7.47;;;;;;;;;;5028691;28;20404;-68
2022/05/06 11:09:51;;;;;;;15.95;7.25;;;;;;;;;;5029464;28;20028;-68
2022/05/06 11:12:37;;;;;;;14.57;7.20;;;;;;;;;;5029735;28;20025;-68
2022/05/06 11:15:05;;;;;;;13.45;6.70;;;;;;;;;;5011153;28;20025;-68
2022/05/06 11:17:31;;;;;;;16.27;7.30;;;;;;;;;;5029185;28;20029;-68
2022/05/06 11:19:58;;;;;;;10.52;7.20;;;;;;;;;;5010707;28;20083;-68
2022/05/06 11:22:25;;;;;;;10.82;6.35;;;;;;;;;;5029689;28;20033;-67
2022/05/06 11:25:03;;;;;;;14.95;7.03;;;;;;;;;;5029728;28;20029;-68
2022/05/06 11:27:29;;;;;;;12.75;6.88;;;;;;;;;;5028408;28;20030;-68
2022/05/06 11:29:59;;;;;;;10.15;6.63;;;;;;;;;;5029480;28;20052;-68
2022/05/06 11:32:28;;;;;;;13.32;6.75;;;;;;;;;;5021904;28;20025;-68
2022/05/06 11:34:57;;;;;;;14.27;7.55;;;;;;;;;;5020821;28;20033;-68
2022/05/06 11:37:24;;;;;;;11.98;7.65;;;;;;;;;;5029143;28;20056;-68
2022/05/06 11:39:50;;;;;;;14.95;7.53;;;;;;;;;;5029640;28;20516;-68
2022/05/06 11:48:08;;;;;;;12.13;7.30;;;;;;;;;;5019139;28;20450;-68
2022/05/06 11:50:35;;;;;;;11.32;7.63;;;;;;;;;;5027965;28;20091;-68
2022/05/06 11:53:02;;;;;;;14.88;7.18;;;;;;;;;;5031121;28;20032;-67
2022/05/06 11:55:28;;;;;;;16.17;7.85;;;;;;;;;;5029216;28;20037;-68
2022/05/06 11:57:56;;;;;;;13.02;7.18;;;;;;;;;;5011252;28;20033;-68
2022/05/06 12:00:23;;;;;;;15.98;8.07;;;;;;;;;;5011234;28;20033;-68
2022/05/06 12:02:50;;;;;;;14.55;7.32;;;;;;;;;;5008166;28;20030;-68
2022/05/06 12:05:16;;;;;;;16.67;7.55;;;;;;;;;;5036771;28;20025;-68
2022/05/06 12:07:46;;;;;;;14.75;7.43;;;;;;;;;;5045822;28;20051;-68
2022/05/06 12:10:29;;;;;;;11.10;7.00;;;;;;;;;;5049417;28;20051;-67
2022/05/06 12:12:56;;;;;;;25.33;7.13;;;;;;;;;;5040934;28;20033;-68
2022/05/06 12:15:33;;;;;;;12.88;7.30;;;;;;;;;;5049359;28;20028;-67
2022/05/06 12:18:09;;;;;;;14.20;7.47;;;;;;;;;;5048754;28;20100;-67
2022/05/06 12:20:39;;;;;;;17.73;7.10;;;;;;;;;;5047650;28;20021;-68
2022/05/06 12:23:05;;;;;;;;;;;;;;;;;;5038354;28;20096;-67
2022/05/06 12:25:32;;;;;;;11.52;6.95;;;;;;;;;;5019381;28;19996;-67
2022/05/06 12:28:17;;;;;;;16.08;7.45;;;;;;;;;;5040203;28;20021;-68
2022/05/06 12:30:44;;;;;;;15.73;7.78;;;;;;;;;;5047784;28;20029;-68
2022/05/06 12:33:12;;;;;;;10.55;6.45;;;;;;;;;;5034216;28;20207;-68
2022/05/06 12:35:57;;;;;;;14.82;7.18;;;;;;;;;;5046000;28;20116;-68
2022/05/06 12:38:24;;;;;;;14.25;7.85;;;;;;;;;;5038147;28;20034;-68
2022/05/06 12:40:50;;;;;;;16.08;7.15;;;;;;;;;;5022845;28;20044;-69
2022/05/06 12:43:17;;;;;;;14.27;7.50;;;;;;;;;;5033021;28;20023;-69
2022/05/06 12:45:56;;;;;;;16.73;7.55;;;;;;;;;;5042076;28;20053;-68
2022/05/06 12:51:07;;;;;;;12.88;7.47;;;;;;;;;;5037246;28;20095;-70
2022/05/06 12:53:34;;;;;;;12.85;7.35;;;;;;;;;;5040632;28;20037;-68
2022/05/06 12:56:03;;;;;;;13.82;7.70;;;;;;;;;;5036351;28;20053;-68
2022/05/06 12:58:29;;;;;;;18.85;6.88;;;;;;;;;;5038132;28;20021;-68
2022/05/06 13:00:56;;;;;;;11.02;7.03;;;;;;;;;;5041619;28;20030;-68
2022/05/06 13:03:22;;;;;;;12.02;7.25;;;;;;;;;;5048281;28;20065;-69
2022/05/06 13:05:49;;;;;;;13.65;7.22;;;;;;;;;;5045259;28;20064;-68
2022/05/06 13:08:15;;;;;;;14.82;7.85;;;;;;;;;;5021204;28;20108;-67
2022/05/06 13:10:41;;;;;;;14.75;8.27;;;;;;;;;;5049335;28;20053;-68
2022/05/06 13:13:07;;;;;;;17.65;8.20;;;;;;;;;;5034540;28;20061;-68
2022/05/06 13:15:33;;;;;;;14.27;8.30;;;;;;;;;;5035729;28;20105;-68
2022/05/06 13:17:59;;;;;;;13.35;7.50;;;;;;;;;;5034765;28;20044;-68
2022/05/06 13:20:25;;;;;;;14.73;7.55;;;;;;;;;;5048709;28;20401;-68
2022/05/06 13:22:51;;;;;;;17.38;7.43;;;;;;;;;;5041875;28;20029;-68
2022/05/06 13:25:17;;;;;;;12.80;7.60;;;;;;;;;;5032080;28;20025;-68
2022/05/06 13:27:45;;;;;;;18.95;7.97;;;;;;;;;;5041083;28;20020;-67
2022/05/06 13:30:11;;;;;;;14.57;7.65;;;;;;;;;;5025564;28;20155;-68
2022/05/06 13:32:37;;;;;;;14.02;7.65;;;;;;;;;;5042945;28;20487;-69
2022/05/06 13:35:03;;;;;;;18.15;7.82;;;;;;;;;;5042023;28;20074;-68
2022/05/06 13:37:29;;;;;;;26.23;8.18;;;;;;;;;;5043197;28;20021;-68
2022/05/06 13:39:55;;;;;;;12.00;7.80;;;;;;;;;;5051724;28;20116;-68
2022/05/06 13:42:21;;;;;;;17.60;7.90;;;;;;;;;;5043986;28;20135;-68
2022/05/06 13:44:47;;;;;;;12.43;7.82;;;;;;;;;;5042855;28;20021;-67
2022/05/06 13:47:13;;;;;;;11.02;7.10;;;;;;;;;;5033266;28;20025;-67
2022/05/06 13:49:41;;;;;;;15.50;8.65;;;;;;;;;;5031456;28;20047;-67
2022/05/06 13:52:07;;;;;;;15.65;8.13;;;;;;;;;;5013188;28;20116;-66
2022/05/06 13:54:33;;;;;;;21.00;8.90;;;;;;;;;;5047655;28;20035;-68
2022/05/06 13:59:44;;;;;;;13.77;8.13;;;;;;;;;;5039138;28;20118;-67
2022/05/06 14:02:10;;;;;;;14.75;8.15;;;;;;;;;;5013552;28;20462;-68
2022/05/06 14:07:39;;;;;;;17.75;8.80;;;;;;;;;;5087479;23;20520;-65
2022/05/06 14:10:06;;;;;;;15.18;9.65;;;;;;;;;;5052440;28;20020;-66
2022/05/06 14:12:32;;;;;;;13.73;8.65;;;;;;;;;;5040993;28;20040;-66
2022/05/06 14:14:59;;;;;;;19.23;8.48;;;;;;;;;;5069564;28;20025;-66
2022/05/06 14:17:25;;;;;;;16.63;8.75;;;;;;;;;;5069699;28;20063;-66
2022/05/06 14:19:55;;;;;;;16.02;8.88;;;;;;;;;;5061259;28;20032;-67
2022/05/06 14:22:22;;;;;;;15.20;8.25;;;;;;;;;;5070323;28;20571;-66
2022/05/06 14:24:48;;;;;;;18.15;8.73;;;;;;;;;;5070312;28;20102;-65
2022/05/06 14:27:18;;;;;;;16.58;7.95;;;;;;;;;;5069525;28;20056;-66
2022/05/06 14:29:44;;;;;;;19.02;8.43;;;;;;;;;;5070242;28;20021;-65
2022/05/06 14:32:10;;;;;;;10.85;7.13;;;;;;;;;;5070416;28;20040;-66
2022/05/06 14:34:37;;;;;;;14.15;8.48;;;;;;;;;;5052308;28;20051;-66
2022/05/06 14:37:03;;;;;;;16.85;9.32;;;;;;;;;;5068928;28;20024;-65
2022/05/06 14:39:29;;;;;;;19.30;9.00;;;;;;;;;;5052976;28;20565;-66
2022/05/06 14:41:55;;;;;;;20.88;7.80;;;;;;;;;;5060928;28;20115;-66
2022/05/06 14:44:21;;;;;;;10.32;7.35;;;;;;;;;;5063409;28;20032;-66
2022/05/06 14:46:47;;;;;;;15.32;8.35;;;;;;;;;;5067424;28;20029;-66
2022/05/06 14:49:13;;;;;;;18.70;8.95;;;;;;;;;;5069648;28;20440;-66
2022/05/06 14:51:39;;;;;;;19.17;7.95;;;;;;;;;;5051309;28;20482;-65
2022/05/06 14:54:05;;;;;;;13.02;8.43;;;;;;;;;;5052372;28;20059;-65
2022/05/06 14:56:32;;;;;;;20.27;8.57;;;;;;;;;;5070801;28;20028;-66
2022/05/06 14:58:58;;;;;;;15.73;8.52;;;;;;;;;;5051243;28;20024;-66
2022/05/06 15:01:25;;;;;;;17.92;8.88;;;;;;;;;;5069215;28;20495;-66
2022/05/06 15:03:51;;;;;;;14.90;8.13;;;;;;;;;;5069193;28;20371;-66
2022/05/06 15:06:17;;;;;;;19.55;9.20;;;;;;;;;;5069225;28;20036;-65
2022/05/06 15:08:43;;;;;;;12.35;8.73;;;;;;;;;;5073078;28;20032;-65
2022/05/06 15:11:09;;;;;;;14.00;8.98;;;;;;;;;;5069907;28;20070;-65
2022/05/06 15:13:36;;;;;;;17.98;8.70;;;;;;;;;;5069478;28;20543;-66
2022/05/06 15:16:03;;;;;;;21.92;10.07;;;;;;;;;;5070222;28;20033;-66
2022/05/06 15:21:14;;;;;;;15.93;8.93;;;;;;;;;;5062245;28;20031;-65
2022/05/06 15:23:46;;;;;;;19.90;8.80;;;;;;;;;;5069879;28;20058;-65
2022/05/06 15:26:13;;;;;;;17.98;9.77;;;;;;;;;;5069192;28;20037;-65
2022/05/06 15:28:39;;;;;;;14.95;9.13;;;;;;;;;;5051175;28;20024;-65
2022/05/06 15:31:05;;;;;;;18.65;8.80;;;;;;;;;;5069361;28;20488;-65
2022/05/06 15:33:31;;;;;;;16.38;8.85;;;;;;;;;;5061110;28;20028;-65
2022/05/06 15:36:00;;;;;;;27.92;9.15;;;;;;;;;;5068954;28;20020;-65
2022/05/06 15:38:26;;;;;;;18.67;9.57;;;;;;;;;;5060505;28;20032;-66
2022/05/06 15:40:53;;;;;;;19.33;9.18;;;;;;;;;;5069049;28;20186;-65
2022/05/06 15:43:20;;;;;;;13.50;8.75;;;;;;;;;;5051648;28;20225;-65
2022/05/06 15:45:46;;;;;;;18.98;8.80;;;;;;;;;;5067653;28;20028;-65
2022/05/06 15:48:12;;;;;;;13.15;8.55;;;;;;;;;;5061720;28;20381;-65
2022/05/06 15:50:41;;;;;;;13.88;8.52;;;;;;;;;;5060554;28;20488;-65
2022/05/06 15:53:07;;;;;;;15.55;7.65;;;;;;;;;;5060534;28;20107;-66
2022/05/06 15:55:33;;;;;;;13.27;8.48;;;;;;;;;;5066909;28;20033;-65
2022/05/06 15:57:59;;;;;;;17.63;8.27;;;;;;;;;;5072417;28;20029;-65
2022/05/06 16:00:26;;;;;;;18.05;8.52;;;;;;;;;;5070765;28;20032;-66
2022/05/06 16:02:52;;;;;;;18.75;9.30;;;;;;;;;;5041511;28;20036;-65
2022/05/06 16:05:18;;;;;;;18.98;8.85;;;;;;;;;;5068616;28;20025;-66
2022/05/06 16:07:46;;;;;;;15.35;8.52;;;;;;;;;;5069259;28;20549;-66
2022/05/06 16:10:13;;;;;;;20.08;8.27;;;;;;;;;;5069142;28;20215;-66
2022/05/06 16:12:40;;;;;;;21.17;9.00;;;;;;;;;;5067916;28;20049;-66
2022/05/06 16:15:21;;;;;;;21.15;8.00;;;;;;;;;;5072506;28;20037;-66
2022/05/06 16:17:47;;;;;;;;;;;;;;;;;;5072697;28;20136;-66
2022/05/06 16:20:13;;;;;;;15.73;9.00;;;;;;;;;;5072864;28;19908;-65
2022/05/06 16:22:42;;;;;;;17.02;7.88;;;;;;;;;;5053713;28;20028;-65